sensor_id;sensor_type;location;lat;lon;timestamp;P1;durP1;ratioP1;P2;durP2;ratioP2
63434;SDS011;68814;50.872;5.306;2023-04-25T00:02:39;15.80;;;4.55;;
63434;SDS011;68814;50.872;5.306;2023-04-25T00:05:06;17.73;;;4.70;;
63434;SDS011;68814;50.872;5.306;2023-04-25T00:07:54;11.45;;;4.50;;
63434;SDS011;68814;50.872;5.306;2023-04-25T00:10:21;18.42;;;4.40;;
63434;SDS011;68814;50.872;5.306;2023-04-25T00:13:14;17.20;;;4.20;;
63434;SDS011;68814;50.872;5.306;2023-04-25T00:16:00;17.13;;;5.30;;
63434;SDS011;68814;50.872;5.306;2023-04-25T00:18:46;23.55;;;5.50;;
63434;SDS011;68814;50.872;5.306;2023-04-25T00:21:32;19.27;;;4.82;;
63434;SDS011;68814;50.872;5.306;2023-04-25T00:24:00;14.73;;;4.68;;
63434;SDS011;68814;50.872;5.306;2023-04-25T00:53:13;22.75;;;5.40;;
63434;SDS011;68814;50.872;5.306;2023-04-25T00:57:07;23.55;;;5.38;;
63434;SDS011;68814;50.872;5.306;2023-04-25T00:59:59;26.40;;;5.97;;
63434;SDS011;68814;50.872;5.306;2023-04-25T01:03:05;25.48;;;5.30;;
63434;SDS011;68814;50.872;5.306;2023-04-25T01:06:11;11.15;;;4.28;;
63434;SDS011;68814;50.872;5.306;2023-04-25T01:09:19;30.67;;;5.82;;
63434;SDS011;68814;50.872;5.306;2023-04-25T01:12:25;21.23;;;4.93;;
63434;SDS011;68814;50.872;5.306;2023-04-25T01:15:31;24.65;;;5.05;;
63434;SDS011;68814;50.872;5.306;2023-04-25T01:18:04;22.90;;;4.70;;
63434;SDS011;68814;50.872;5.306;2023-04-25T01:21:18;21.63;;;4.20;;
63434;SDS011;68814;50.872;5.306;2023-04-25T01:24:37;14.30;;;5.10;;
63434;SDS011;68814;50.872;5.306;2023-04-25T01:27:09;18.45;;;4.57;;
63434;SDS011;68814;50.872;5.306;2023-04-25T01:29:55;18.88;;;5.32;;
63434;SDS011;68814;50.872;5.306;2023-04-25T01:32:43;25.92;;;5.15;;
63434;SDS011;68814;50.872;5.306;2023-04-25T01:35:55;15.07;;;4.82;;
63434;SDS011;68814;50.872;5.306;2023-04-25T01:39:09;23.67;;;5.03;;
63434;SDS011;68814;50.872;5.306;2023-04-25T01:42:15;24.73;;;4.82;;
63434;SDS011;68814;50.872;5.306;2023-04-25T01:45:42;15.10;;;4.85;;
63434;SDS011;68814;50.872;5.306;2023-04-25T01:48:28;25.27;;;5.43;;
63434;SDS011;68814;50.872;5.306;2023-04-25T01:50:57;22.80;;;5.05;;
63434;SDS011;68814;50.872;5.306;2023-04-25T01:57:52;25.52;;;5.82;;
63434;SDS011;68814;50.872;5.306;2023-04-25T02:00:47;15.98;;;4.90;;
63434;SDS011;68814;50.872;5.306;2023-04-25T02:04:15;24.63;;;4.90;;
63434;SDS011;68814;50.872;5.306;2023-04-25T02:07:07;27.83;;;5.07;;
63434;SDS011;68814;50.872;5.306;2023-04-25T02:10:39;22.35;;;5.10;;
63434;SDS011;68814;50.872;5.306;2023-04-25T02:13:29;19.20;;;4.78;;
63434;SDS011;68814;50.872;5.306;2023-04-25T02:17:00;17.73;;;5.22;;
63434;SDS011;68814;50.872;5.306;2023-04-25T02:19:50;26.63;;;5.90;;
63434;SDS011;68814;50.872;5.306;2023-04-25T02:23:20;22.42;;;6.78;;
63434;SDS011;68814;50.872;5.306;2023-04-25T02:25:49;22.50;;;5.35;;
63434;SDS011;68814;50.872;5.306;2023-04-25T02:28:39;31.67;;;6.10;;
63434;SDS011;68814;50.872;5.306;2023-04-25T02:31:06;17.52;;;5.07;;
63434;SDS011;68814;50.872;5.306;2023-04-25T02:34:16;19.30;;;4.53;;
63434;SDS011;68814;50.872;5.306;2023-04-25T02:41:03;19.65;;;6.25;;
63434;SDS011;68814;50.872;5.306;2023-04-25T02:44:40;16.33;;;4.75;;
63434;SDS011;68814;50.872;5.306;2023-04-25T02:47:48;25.73;;;5.78;;
63434;SDS011;68814;50.872;5.306;2023-04-25T02:50:41;22.60;;;6.20;;
63434;SDS011;68814;50.872;5.306;2023-04-25T02:53:31;21.23;;;6.10;;
63434;SDS011;68814;50.872;5.306;2023-04-25T02:56:00;21.15;;;5.38;;
63434;SDS011;68814;50.872;5.306;2023-04-25T02:58:52;17.10;;;5.43;;
63434;SDS011;68814;50.872;5.306;2023-04-25T03:01:50;24.00;;;5.65;;
63434;SDS011;68814;50.872;5.306;2023-04-25T03:04:36;29.05;;;6.72;;
63434;SDS011;68814;50.872;5.306;2023-04-25T03:07:28;23.55;;;6.38;;
63434;SDS011;68814;50.872;5.306;2023-04-25T03:10:19;18.00;;;5.57;;
63434;SDS011;68814;50.872;5.306;2023-04-25T03:13:51;20.02;;;5.50;;
63434;SDS011;68814;50.872;5.306;2023-04-25T03:16:42;23.65;;;7.10;;
63434;SDS011;68814;50.872;5.306;2023-04-25T03:19:57;23.83;;;6.10;;
63434;SDS011;68814;50.872;5.306;2023-04-25T03:22:49;17.77;;;5.65;;
63434;SDS011;68814;50.872;5.306;2023-04-25T03:25:19;27.47;;;7.23;;
63434;SDS011;68814;50.872;5.306;2023-04-25T03:28:06;24.45;;;7.25;;
63434;SDS011;68814;50.872;5.306;2023-04-25T03:30:34;22.83;;;5.65;;
63434;SDS011;68814;50.872;5.306;2023-04-25T03:33:02;25.67;;;6.55;;
63434;SDS011;68814;50.872;5.306;2023-04-25T03:35:51;24.30;;;7.53;;
63434;SDS011;68814;50.872;5.306;2023-04-25T03:38:18;22.73;;;6.50;;
63434;SDS011;68814;50.872;5.306;2023-04-25T03:40:44;21.02;;;6.65;;
63434;SDS011;68814;50.872;5.306;2023-04-25T03:43:10;32.38;;;7.20;;
63434;SDS011;68814;50.872;5.306;2023-04-25T03:45:37;23.33;;;7.78;;
63434;SDS011;68814;50.872;5.306;2023-04-25T03:48:04;22.60;;;6.55;;
63434;SDS011;68814;50.872;5.306;2023-04-25T03:50:54;21.52;;;6.00;;
63434;SDS011;68814;50.872;5.306;2023-04-25T03:53:27;23.85;;;6.40;;
63434;SDS011;68814;50.872;5.306;2023-04-25T03:56:17;26.58;;;7.28;;
63434;SDS011;68814;50.872;5.306;2023-04-25T03:59:26;33.85;;;8.27;;
63434;SDS011;68814;50.872;5.306;2023-04-25T04:01:53;31.15;;;7.03;;
63434;SDS011;68814;50.872;5.306;2023-04-25T04:05:04;24.85;;;5.90;;
63434;SDS011;68814;50.872;5.306;2023-04-25T04:07:51;24.65;;;6.78;;
63434;SDS011;68814;50.872;5.306;2023-04-25T04:10:17;27.15;;;7.00;;
63434;SDS011;68814;50.872;5.306;2023-04-25T04:13:04;21.95;;;7.47;;
63434;SDS011;68814;50.872;5.306;2023-04-25T04:15:56;22.58;;;7.32;;
63434;SDS011;68814;50.872;5.306;2023-04-25T04:19:21;28.42;;;7.05;;
63434;SDS011;68814;50.872;5.306;2023-04-25T04:22:10;23.02;;;6.88;;
63434;SDS011;68814;50.872;5.306;2023-04-25T04:25:21;23.50;;;8.25;;
63434;SDS011;68814;50.872;5.306;2023-04-25T04:28:07;24.08;;;7.43;;
63434;SDS011;68814;50.872;5.306;2023-04-25T04:31:15;28.52;;;8.77;;
63434;SDS011;68814;50.872;5.306;2023-04-25T04:34:04;22.80;;;6.97;;
63434;SDS011;68814;50.872;5.306;2023-04-25T04:36:55;23.15;;;7.20;;
63434;SDS011;68814;50.872;5.306;2023-04-25T04:39:21;24.92;;;7.20;;
63434;SDS011;68814;50.872;5.306;2023-04-25T04:42:07;20.52;;;5.10;;
63434;SDS011;68814;50.872;5.306;2023-04-25T04:44:33;20.60;;;5.43;;
63434;SDS011;68814;50.872;5.306;2023-04-25T04:47:00;16.08;;;4.82;;
63434;SDS011;68814;50.872;5.306;2023-04-25T04:49:31;19.02;;;4.28;;
63434;SDS011;68814;50.872;5.306;2023-04-25T04:58:44;16.23;;;5.15;;
63434;SDS011;68814;50.872;5.306;2023-04-25T05:01:36;13.23;;;4.95;;
63434;SDS011;68814;50.872;5.306;2023-04-25T05:04:22;16.10;;;4.65;;
63434;SDS011;68814;50.872;5.306;2023-04-25T05:07:12;21.30;;;5.38;;
63434;SDS011;68814;50.872;5.306;2023-04-25T05:09:39;24.08;;;5.13;;
63434;SDS011;68814;50.872;5.306;2023-04-25T05:18:50;17.23;;;4.43;;
63434;SDS011;68814;50.872;5.306;2023-04-25T05:21:18;17.90;;;5.22;;
63434;SDS011;68814;50.872;5.306;2023-04-25T05:26:38;15.10;;;4.32;;
63434;SDS011;68814;50.872;5.306;2023-04-25T05:32:22;14.75;;;4.53;;
63434;SDS011;68814;50.872;5.306;2023-04-25T05:35:13;16.55;;;4.82;;
63434;SDS011;68814;50.872;5.306;2023-04-25T05:44:07;18.58;;;4.95;;
63434;SDS011;68814;50.872;5.306;2023-04-25T05:53:03;16.87;;;4.97;;
63434;SDS011;68814;50.872;5.306;2023-04-25T05:55:50;14.40;;;5.47;;
63434;SDS011;68814;50.872;5.306;2023-04-25T05:58:44;15.68;;;5.22;;
63434;SDS011;68814;50.872;5.306;2023-04-25T06:01:31;16.80;;;4.97;;
63434;SDS011;68814;50.872;5.306;2023-04-25T06:04:00;20.48;;;5.43;;
63434;SDS011;68814;50.872;5.306;2023-04-25T06:06:30;14.55;;;4.85;;
63434;SDS011;68814;50.872;5.306;2023-04-25T06:08:59;15.25;;;5.00;;
63434;SDS011;68814;50.872;5.306;2023-04-25T06:11:26;20.15;;;5.60;;
63434;SDS011;68814;50.872;5.306;2023-04-25T06:13:58;17.80;;;5.63;;
63434;SDS011;68814;50.872;5.306;2023-04-25T06:16:25;24.65;;;5.50;;
63434;SDS011;68814;50.872;5.306;2023-04-25T06:19:00;16.60;;;4.82;;
63434;SDS011;68814;50.872;5.306;2023-04-25T06:21:26;19.42;;;4.93;;
63434;SDS011;68814;50.872;5.306;2023-04-25T06:24:12;24.75;;;5.47;;
63434;SDS011;68814;50.872;5.306;2023-04-25T06:30:08;21.30;;;5.47;;
63434;SDS011;68814;50.872;5.306;2023-04-25T06:33:15;15.88;;;5.35;;
63434;SDS011;68814;50.872;5.306;2023-04-25T07:00:02;14.23;;;4.60;;
63434;SDS011;68814;50.872;5.306;2023-04-25T07:02:30;18.27;;;4.68;;
63434;SDS011;68814;50.872;5.306;2023-04-25T07:04:57;24.00;;;5.32;;
63434;SDS011;68814;50.872;5.306;2023-04-25T07:07:25;21.55;;;5.68;;
63434;SDS011;68814;50.872;5.306;2023-04-25T07:09:51;20.40;;;5.75;;
63434;SDS011;68814;50.872;5.306;2023-04-25T07:12:40;25.77;;;6.45;;
63434;SDS011;68814;50.872;5.306;2023-04-25T07:15:29;15.45;;;5.20;;
63434;SDS011;68814;50.872;5.306;2023-04-25T07:17:55;22.25;;;5.60;;
63434;SDS011;68814;50.872;5.306;2023-04-25T07:23:54;19.88;;;5.85;;
63434;SDS011;68814;50.872;5.306;2023-04-25T07:27:03;20.83;;;6.25;;
63434;SDS011;68814;50.872;5.306;2023-04-25T07:29:53;21.40;;;7.93;;
63434;SDS011;68814;50.872;5.306;2023-04-25T07:32:22;22.95;;;6.82;;
63434;SDS011;68814;50.872;5.306;2023-04-25T07:34:51;21.20;;;6.93;;
63434;SDS011;68814;50.872;5.306;2023-04-25T07:37:43;31.13;;;6.70;;
63434;SDS011;68814;50.872;5.306;2023-04-25T07:40:10;25.52;;;7.20;;
63434;SDS011;68814;50.872;5.306;2023-04-25T07:42:56;27.58;;;7.70;;
63434;SDS011;68814;50.872;5.306;2023-04-25T07:45:45;17.42;;;7.25;;
63434;SDS011;68814;50.872;5.306;2023-04-25T07:58:12;26.05;;;6.60;;
63434;SDS011;68814;50.872;5.306;2023-04-25T08:00:58;30.90;;;8.65;;
63434;SDS011;68814;50.872;5.306;2023-04-25T08:03:47;35.40;;;12.57;;
63434;SDS011;68814;50.872;5.306;2023-04-25T08:06:13;29.55;;;9.85;;
63434;SDS011;68814;50.872;5.306;2023-04-25T08:08:42;33.28;;;10.20;;
63434;SDS011;68814;50.872;5.306;2023-04-25T08:11:16;20.52;;;6.43;;
63434;SDS011;68814;50.872;5.306;2023-04-25T08:14:04;24.08;;;7.93;;
63434;SDS011;68814;50.872;5.306;2023-04-25T08:16:52;21.45;;;7.82;;
63434;SDS011;68814;50.872;5.306;2023-04-25T08:19:21;19.30;;;5.55;;
63434;SDS011;68814;50.872;5.306;2023-04-25T08:21:54;24.17;;;4.90;;
63434;SDS011;68814;50.872;5.306;2023-04-25T08:24:42;19.27;;;4.85;;
63434;SDS011;68814;50.872;5.306;2023-04-25T08:27:34;15.20;;;4.15;;
63434;SDS011;68814;50.872;5.306;2023-04-25T08:30:04;13.45;;;4.30;;
63434;SDS011;68814;50.872;5.306;2023-04-25T08:32:54;14.68;;;3.00;;
63434;SDS011;68814;50.872;5.306;2023-04-25T08:35:23;10.18;;;2.80;;
63434;SDS011;68814;50.872;5.306;2023-04-25T08:37:50;14.68;;;3.30;;
63434;SDS011;68814;50.872;5.306;2023-04-25T08:40:17;9.95;;;2.60;;
63434;SDS011;68814;50.872;5.306;2023-04-25T08:43:07;7.43;;;2.67;;
63434;SDS011;68814;50.872;5.306;2023-04-25T08:46:09;10.70;;;2.77;;
63434;SDS011;68814;50.872;5.306;2023-04-25T08:48:48;15.75;;;3.03;;
63434;SDS011;68814;50.872;5.306;2023-04-25T08:51:42;6.05;;;2.35;;
63434;SDS011;68814;50.872;5.306;2023-04-25T08:54:34;14.57;;;2.90;;
63434;SDS011;68814;50.872;5.306;2023-04-25T08:57:03;20.45;;;3.85;;
63434;SDS011;68814;50.872;5.306;2023-04-25T09:00:13;12.27;;;2.85;;
63434;SDS011;68814;50.872;5.306;2023-04-25T09:02:45;13.85;;;2.83;;
63434;SDS011;68814;50.872;5.306;2023-04-25T09:06:05;10.68;;;3.30;;
63434;SDS011;68814;50.872;5.306;2023-04-25T09:08:53;14.95;;;3.75;;
63434;SDS011;68814;50.872;5.306;2023-04-25T09:12:04;15.23;;;3.53;;
63434;SDS011;68814;50.872;5.306;2023-04-25T09:15:10;15.45;;;3.20;;
63434;SDS011;68814;50.872;5.306;2023-04-25T09:17:41;16.52;;;3.42;;
63434;SDS011;68814;50.872;5.306;2023-04-25T09:20:10;8.20;;;2.17;;
63434;SDS011;68814;50.872;5.306;2023-04-25T09:22:38;13.05;;;2.00;;
63434;SDS011;68814;50.872;5.306;2023-04-25T09:25:07;15.52;;;2.70;;
63434;SDS011;68814;50.872;5.306;2023-04-25T09:43:46;11.00;;;2.90;;
63434;SDS011;68814;50.872;5.306;2023-04-25T09:49:06;11.18;;;2.80;;
63434;SDS011;68814;50.872;5.306;2023-04-25T09:51:38;9.95;;;2.10;;
63434;SDS011;68814;50.872;5.306;2023-04-25T09:54:26;9.65;;;2.03;;
63434;SDS011;68814;50.872;5.306;2023-04-25T09:56:58;7.82;;;1.98;;
63434;SDS011;68814;50.872;5.306;2023-04-25T10:02:29;12.15;;;2.63;;
63434;SDS011;68814;50.872;5.306;2023-04-25T10:05:15;6.22;;;2.17;;
63434;SDS011;68814;50.872;5.306;2023-04-25T10:07:44;8.65;;;2.00;;
63434;SDS011;68814;50.872;5.306;2023-04-25T10:14:10;9.93;;;1.92;;
63434;SDS011;68814;50.872;5.306;2023-04-25T10:16:37;8.30;;;2.75;;
63434;SDS011;68814;50.872;5.306;2023-04-25T10:19:24;12.23;;;2.20;;
63434;SDS011;68814;50.872;5.306;2023-04-25T10:25:04;7.68;;;1.88;;
63434;SDS011;68814;50.872;5.306;2023-04-25T10:38:00;6.55;;;1.90;;
63434;SDS011;68814;50.872;5.306;2023-04-25T10:41:02;13.65;;;2.60;;
63434;SDS011;68814;50.872;5.306;2023-04-25T10:43:36;10.82;;;2.60;;
63434;SDS011;68814;50.872;5.306;2023-04-25T10:46:28;14.32;;;2.15;;
63434;SDS011;68814;50.872;5.306;2023-04-25T10:48:57;9.68;;;2.40;;
63434;SDS011;68814;50.872;5.306;2023-04-25T10:51:31;8.07;;;1.95;;
63434;SDS011;68814;50.872;5.306;2023-04-25T10:54:05;4.93;;;1.33;;
63434;SDS011;68814;50.872;5.306;2023-04-25T10:59:22;5.38;;;1.10;;
63434;SDS011;68814;50.872;5.306;2023-04-25T11:01:51;8.60;;;1.70;;
63434;SDS011;68814;50.872;5.306;2023-04-25T11:04:32;9.05;;;2.83;;
63434;SDS011;68814;50.872;5.306;2023-04-25T11:09:30;13.18;;;3.70;;
63434;SDS011;68814;50.872;5.306;2023-04-25T11:11:58;5.75;;;2.03;;
63434;SDS011;68814;50.872;5.306;2023-04-25T11:14:25;5.85;;;2.00;;
63434;SDS011;68814;50.872;5.306;2023-04-25T11:16:54;9.35;;;2.20;;
63434;SDS011;68814;50.872;5.306;2023-04-25T11:19:24;8.20;;;2.47;;
63434;SDS011;68814;50.872;5.306;2023-04-25T11:21:50;8.30;;;2.35;;
63434;SDS011;68814;50.872;5.306;2023-04-25T11:24:21;10.60;;;2.45;;
63434;SDS011;68814;50.872;5.306;2023-04-25T11:26:53;9.95;;;2.17;;
63434;SDS011;68814;50.872;5.306;2023-04-25T11:29:23;11.98;;;2.13;;
63434;SDS011;68814;50.872;5.306;2023-04-25T11:31:51;7.32;;;1.30;;
63434;SDS011;68814;50.872;5.306;2023-04-25T11:34:18;5.30;;;1.40;;
63434;SDS011;68814;50.872;5.306;2023-04-25T11:36:45;4.47;;;1.30;;
63434;SDS011;68814;50.872;5.306;2023-04-25T11:39:11;4.63;;;0.93;;
63434;SDS011;68814;50.872;5.306;2023-04-25T11:41:37;6.78;;;0.90;;
63434;SDS011;68814;50.872;5.306;2023-04-25T11:44:05;9.50;;;0.70;;
63434;SDS011;68814;50.872;5.306;2023-04-25T11:46:50;3.40;;;0.80;;
63434;SDS011;68814;50.872;5.306;2023-04-25T11:49:16;3.90;;;0.80;;
63434;SDS011;68814;50.872;5.306;2023-04-25T11:52:10;4.35;;;0.90;;
63434;SDS011;68814;50.872;5.306;2023-04-25T11:54:36;5.05;;;1.15;;
63434;SDS011;68814;50.872;5.306;2023-04-25T11:57:06;3.47;;;0.90;;
63434;SDS011;68814;50.872;5.306;2023-04-25T11:59:31;5.60;;;1.15;;
63434;SDS011;68814;50.872;5.306;2023-04-25T12:02:02;2.58;;;0.95;;
63434;SDS011;68814;50.872;5.306;2023-04-25T12:04:29;7.75;;;1.20;;
63434;SDS011;68814;50.872;5.306;2023-04-25T12:07:03;3.78;;;0.85;;
63434;SDS011;68814;50.872;5.306;2023-04-25T12:09:30;5.90;;;1.10;;
63434;SDS011;68814;50.872;5.306;2023-04-25T12:11:59;10.15;;;1.08;;
63434;SDS011;68814;50.872;5.306;2023-04-25T12:14:30;4.45;;;0.77;;
63434;SDS011;68814;50.872;5.306;2023-04-25T12:17:00;4.03;;;0.98;;
63434;SDS011;68814;50.872;5.306;2023-04-25T12:22:03;4.60;;;0.90;;
63434;SDS011;68814;50.872;5.306;2023-04-25T12:30:22;6.85;;;1.20;;
63434;SDS011;68814;50.872;5.306;2023-04-25T12:35:36;8.50;;;1.92;;
63434;SDS011;68814;50.872;5.306;2023-04-25T12:40:54;6.78;;;2.03;;
63434;SDS011;68814;50.872;5.306;2023-04-25T12:46:30;6.63;;;1.98;;
63434;SDS011;68814;50.872;5.306;2023-04-25T12:48:55;7.38;;;1.67;;
63434;SDS011;68814;50.872;5.306;2023-04-25T12:51:23;5.07;;;1.55;;
63434;SDS011;68814;50.872;5.306;2023-04-25T12:53:52;5.57;;;1.75;;
63434;SDS011;68814;50.872;5.306;2023-04-25T12:56:24;5.90;;;1.67;;
63434;SDS011;68814;50.872;5.306;2023-04-25T13:01:38;4.95;;;1.65;;
63434;SDS011;68814;50.872;5.306;2023-04-25T13:06:35;8.02;;;1.25;;
63434;SDS011;68814;50.872;5.306;2023-04-25T13:09:01;8.93;;;1.63;;
63434;SDS011;68814;50.872;5.306;2023-04-25T13:11:26;3.28;;;1.10;;
63434;SDS011;68814;50.872;5.306;2023-04-25T13:16:26;6.05;;;1.65;;
63434;SDS011;68814;50.872;5.306;2023-04-25T13:19:08;5.10;;;1.85;;
63434;SDS011;68814;50.872;5.306;2023-04-25T13:21:37;8.32;;;2.20;;
63434;SDS011;68814;50.872;5.306;2023-04-25T13:27:45;7.45;;;1.75;;
63434;SDS011;68814;50.872;5.306;2023-04-25T13:30:16;8.95;;;3.53;;
63434;SDS011;68814;50.872;5.306;2023-04-25T13:33:28;6.60;;;1.50;;
63434;SDS011;68814;50.872;5.306;2023-04-25T13:35:54;4.63;;;1.10;;
63434;SDS011;68814;50.872;5.306;2023-04-25T13:38:23;6.47;;;1.42;;
63434;SDS011;68814;50.872;5.306;2023-04-25T13:40:50;6.55;;;1.88;;
63434;SDS011;68814;50.872;5.306;2023-04-25T13:43:20;5.65;;;1.73;;
63434;SDS011;68814;50.872;5.306;2023-04-25T13:45:49;8.85;;;1.65;;
63434;SDS011;68814;50.872;5.306;2023-04-25T13:48:16;5.97;;;1.40;;
63434;SDS011;68814;50.872;5.306;2023-04-25T13:50:43;6.10;;;1.65;;
63434;SDS011;68814;50.872;5.306;2023-04-25T13:53:17;6.53;;;1.98;;
63434;SDS011;68814;50.872;5.306;2023-04-25T13:55:43;11.02;;;1.88;;
63434;SDS011;68814;50.872;5.306;2023-04-25T13:58:09;8.02;;;1.88;;
63434;SDS011;68814;50.872;5.306;2023-04-25T14:00:37;6.93;;;2.00;;
63434;SDS011;68814;50.872;5.306;2023-04-25T14:03:31;10.55;;;1.95;;
63434;SDS011;68814;50.872;5.306;2023-04-25T14:06:13;7.60;;;1.90;;
63434;SDS011;68814;50.872;5.306;2023-04-25T14:08:59;8.82;;;1.70;;
63434;SDS011;68814;50.872;5.306;2023-04-25T14:11:29;5.00;;;2.00;;
63434;SDS011;68814;50.872;5.306;2023-04-25T14:13:59;6.38;;;2.20;;
63434;SDS011;68814;50.872;5.306;2023-04-25T14:16:29;5.28;;;1.58;;
63434;SDS011;68814;50.872;5.306;2023-04-25T14:18:57;6.82;;;1.50;;
63434;SDS011;68814;50.872;5.306;2023-04-25T14:21:27;9.00;;;2.00;;
63434;SDS011;68814;50.872;5.306;2023-04-25T14:23:54;4.90;;;1.17;;
63434;SDS011;68814;50.872;5.306;2023-04-25T14:26:19;4.32;;;1.17;;
63434;SDS011;68814;50.872;5.306;2023-04-25T14:28:45;7.63;;;1.25;;
63434;SDS011;68814;50.872;5.306;2023-04-25T14:31:31;6.07;;;1.08;;
63434;SDS011;68814;50.872;5.306;2023-04-25T14:33:57;6.50;;;1.33;;
63434;SDS011;68814;50.872;5.306;2023-04-25T14:36:23;4.63;;;1.20;;
63434;SDS011;68814;50.872;5.306;2023-04-25T14:38:51;3.42;;;1.10;;
63434;SDS011;68814;50.872;5.306;2023-04-25T14:41:17;3.50;;;0.95;;
63434;SDS011;68814;50.872;5.306;2023-04-25T14:53:49;3.72;;;0.90;;
63434;SDS011;68814;50.872;5.306;2023-04-25T14:56:18;10.05;;;1.10;;
63434;SDS011;68814;50.872;5.306;2023-04-25T14:58:45;3.65;;;0.88;;
63434;SDS011;68814;50.872;5.306;2023-04-25T15:01:11;2.97;;;1.00;;
63434;SDS011;68814;50.872;5.306;2023-04-25T15:03:38;1.88;;;0.70;;
63434;SDS011;68814;50.872;5.306;2023-04-25T15:06:05;4.28;;;1.00;;
63434;SDS011;68814;50.872;5.306;2023-04-25T15:08:33;4.32;;;0.90;;
63434;SDS011;68814;50.872;5.306;2023-04-25T15:10:59;4.13;;;1.30;;
63434;SDS011;68814;50.872;5.306;2023-04-25T15:13:27;4.72;;;1.05;;
63434;SDS011;68814;50.872;5.306;2023-04-25T15:15:53;4.43;;;0.90;;
63434;SDS011;68814;50.872;5.306;2023-04-25T15:18:22;3.22;;;1.00;;
63434;SDS011;68814;50.872;5.306;2023-04-25T15:20:51;5.00;;;0.88;;
63434;SDS011;68814;50.872;5.306;2023-04-25T15:23:40;6.88;;;1.13;;
63434;SDS011;68814;50.872;5.306;2023-04-25T15:26:06;4.57;;;1.13;;
63434;SDS011;68814;50.872;5.306;2023-04-25T15:31:49;8.10;;;1.33;;
63434;SDS011;68814;50.872;5.306;2023-04-25T15:34:28;8.70;;;1.08;;
63434;SDS011;68814;50.872;5.306;2023-04-25T15:37:37;3.38;;;1.00;;
63434;SDS011;68814;50.872;5.306;2023-04-25T15:42:51;5.47;;;1.48;;
63434;SDS011;68814;50.872;5.306;2023-04-25T15:46:09;4.55;;;1.05;;
63434;SDS011;68814;50.872;5.306;2023-04-25T15:48:59;7.18;;;1.00;;
63434;SDS011;68814;50.872;5.306;2023-04-25T15:54:33;5.57;;;1.08;;
63434;SDS011;68814;50.872;5.306;2023-04-25T15:57:55;6.43;;;1.65;;
63434;SDS011;68814;50.872;5.306;2023-04-25T16:13:32;4.68;;;0.98;;
63434;SDS011;68814;50.872;5.306;2023-04-25T16:17:08;5.20;;;1.33;;
63434;SDS011;68814;50.872;5.306;2023-04-25T16:19:58;4.68;;;1.70;;
63434;SDS011;68814;50.872;5.306;2023-04-25T16:22:44;10.00;;;1.55;;
63434;SDS011;68814;50.872;5.306;2023-04-25T16:25:12;9.30;;;2.08;;
63434;SDS011;68814;50.872;5.306;2023-04-25T16:27:39;3.65;;;1.10;;
63434;SDS011;68814;50.872;5.306;2023-04-25T16:30:25;9.60;;;1.30;;
63434;SDS011;68814;50.872;5.306;2023-04-25T16:32:51;6.68;;;1.30;;
63434;SDS011;68814;50.872;5.306;2023-04-25T16:35:40;4.82;;;1.58;;
63434;SDS011;68814;50.872;5.306;2023-04-25T16:38:11;7.75;;;1.42;;
63434;SDS011;68814;50.872;5.306;2023-04-25T16:54:41;5.05;;;1.13;;
63434;SDS011;68814;50.872;5.306;2023-04-25T16:57:14;4.88;;;1.05;;
63434;SDS011;68814;50.872;5.306;2023-04-25T17:00:02;3.50;;;0.80;;
63434;SDS011;68814;50.872;5.306;2023-04-25T17:02:29;8.13;;;1.30;;
63434;SDS011;68814;50.872;5.306;2023-04-25T17:04:55;8.27;;;1.23;;
63434;SDS011;68814;50.872;5.306;2023-04-25T17:07:20;6.35;;;1.45;;
63434;SDS011;68814;50.872;5.306;2023-04-25T17:09:48;6.30;;;1.05;;
63434;SDS011;68814;50.872;5.306;2023-04-25T17:12:15;6.18;;;1.52;;
63434;SDS011;68814;50.872;5.306;2023-04-25T17:14:41;10.18;;;1.27;;
63434;SDS011;68814;50.872;5.306;2023-04-25T17:17:07;5.10;;;1.00;;
63434;SDS011;68814;50.872;5.306;2023-04-25T17:19:33;7.68;;;0.95;;
63434;SDS011;68814;50.872;5.306;2023-04-25T17:25:26;5.75;;;1.10;;
63434;SDS011;68814;50.872;5.306;2023-04-25T17:27:52;7.90;;;1.30;;
63434;SDS011;68814;50.872;5.306;2023-04-25T17:30:18;9.70;;;1.52;;
63434;SDS011;68814;50.872;5.306;2023-04-25T17:32:44;5.82;;;1.35;;
63434;SDS011;68814;50.872;5.306;2023-04-25T17:35:09;11.75;;;1.52;;
63434;SDS011;68814;50.872;5.306;2023-04-25T17:40:57;7.43;;;1.40;;
63434;SDS011;68814;50.872;5.306;2023-04-25T17:43:23;8.27;;;1.77;;
63434;SDS011;68814;50.872;5.306;2023-04-25T17:45:50;6.13;;;0.90;;
63434;SDS011;68814;50.872;5.306;2023-04-25T17:48:16;6.18;;;1.25;;
63434;SDS011;68814;50.872;5.306;2023-04-25T17:54:22;6.82;;;0.90;;
63434;SDS011;68814;50.872;5.306;2023-04-25T17:56:48;4.28;;;1.02;;
63434;SDS011;68814;50.872;5.306;2023-04-25T17:59:15;3.72;;;0.90;;
63434;SDS011;68814;50.872;5.306;2023-04-25T18:01:41;5.13;;;1.08;;
63434;SDS011;68814;50.872;5.306;2023-04-25T18:04:07;7.35;;;1.27;;
63434;SDS011;68814;50.872;5.306;2023-04-25T18:13:17;5.20;;;0.98;;
63434;SDS011;68814;50.872;5.306;2023-04-25T18:15:46;6.95;;;1.20;;
63434;SDS011;68814;50.872;5.306;2023-04-25T18:18:23;10.07;;;1.92;;
63434;SDS011;68814;50.872;5.306;2023-04-25T18:20:51;3.45;;;1.23;;
63434;SDS011;68814;50.872;5.306;2023-04-25T18:23:24;6.68;;;1.10;;
63434;SDS011;68814;50.872;5.306;2023-04-25T18:25:50;5.03;;;0.98;;
63434;SDS011;68814;50.872;5.306;2023-04-25T18:28:18;7.95;;;1.30;;
63434;SDS011;68814;50.872;5.306;2023-04-25T18:30:43;8.90;;;1.52;;
63434;SDS011;68814;50.872;5.306;2023-04-25T18:33:11;8.20;;;1.40;;
63434;SDS011;68814;50.872;5.306;2023-04-25T18:35:36;8.88;;;1.50;;
63434;SDS011;68814;50.872;5.306;2023-04-25T18:38:03;7.38;;;1.77;;
63434;SDS011;68814;50.872;5.306;2023-04-25T18:40:28;8.77;;;2.45;;
63434;SDS011;68814;50.872;5.306;2023-04-25T18:42:55;8.73;;;1.92;;
63434;SDS011;68814;50.872;5.306;2023-04-25T18:48:43;7.53;;;2.00;;
63434;SDS011;68814;50.872;5.306;2023-04-25T18:51:09;8.52;;;1.40;;
63434;SDS011;68814;50.872;5.306;2023-04-25T18:53:35;9.32;;;1.63;;
63434;SDS011;68814;50.872;5.306;2023-04-25T18:56:01;7.38;;;1.63;;
63434;SDS011;68814;50.872;5.306;2023-04-25T18:58:27;8.80;;;2.17;;
63434;SDS011;68814;50.872;5.306;2023-04-25T19:01:12;9.45;;;1.52;;
63434;SDS011;68814;50.872;5.306;2023-04-25T19:03:40;9.13;;;2.08;;
63434;SDS011;68814;50.872;5.306;2023-04-25T19:06:07;7.20;;;1.50;;
63434;SDS011;68814;50.872;5.306;2023-04-25T19:08:33;7.63;;;1.48;;
63434;SDS011;68814;50.872;5.306;2023-04-25T19:10:59;6.13;;;1.75;;
63434;SDS011;68814;50.872;5.306;2023-04-25T19:13:26;6.95;;;1.77;;
63434;SDS011;68814;50.872;5.306;2023-04-25T19:15:55;8.98;;;1.67;;
63434;SDS011;68814;50.872;5.306;2023-04-25T19:18:22;5.60;;;1.58;;
63434;SDS011;68814;50.872;5.306;2023-04-25T19:20:50;9.27;;;2.05;;
63434;SDS011;68814;50.872;5.306;2023-04-25T19:23:16;5.25;;;1.60;;
63434;SDS011;68814;50.872;5.306;2023-04-25T19:26:18;10.55;;;1.90;;
63434;SDS011;68814;50.872;5.306;2023-04-25T19:28:46;6.40;;;1.60;;
63434;SDS011;68814;50.872;5.306;2023-04-25T19:31:26;9.52;;;1.67;;
63434;SDS011;68814;50.872;5.306;2023-04-25T19:33:52;11.88;;;2.10;;
63434;SDS011;68814;50.872;5.306;2023-04-25T19:36:18;12.02;;;2.22;;
63434;SDS011;68814;50.872;5.306;2023-04-25T19:38:48;9.80;;;1.63;;
63434;SDS011;68814;50.872;5.306;2023-04-25T19:41:14;7.15;;;1.98;;
63434;SDS011;68814;50.872;5.306;2023-04-25T19:43:40;8.18;;;2.42;;
63434;SDS011;68814;50.872;5.306;2023-04-25T19:46:06;12.50;;;2.70;;
63434;SDS011;68814;50.872;5.306;2023-04-25T19:48:32;6.28;;;2.10;;
63434;SDS011;68814;50.872;5.306;2023-04-25T19:50:57;11.38;;;2.80;;
63434;SDS011;68814;50.872;5.306;2023-04-25T19:53:23;9.23;;;2.15;;
63434;SDS011;68814;50.872;5.306;2023-04-25T19:55:50;11.30;;;3.50;;